sensor_id;sensor_type;location;lat;lon;timestamp;pressure;altitude;pressure_sealevel;temperature;humidity
23164;BME280;31429;42.674;23.350;2022-12-05T00:00:32;95695.00;;;5.68;100.00
23164;BME280;31429;42.674;23.350;2022-12-05T00:01:35;95695.06;;;5.62;100.00
23164;BME280;31429;42.674;23.350;2022-12-05T00:02:36;95689.13;;;5.57;100.00
23164;BME280;31429;42.674;23.350;2022-12-05T00:03:37;95690.00;;;5.51;100.00
23164;BME280;31429;42.674;23.350;2022-12-05T00:04:37;95697.59;;;5.51;100.00
23164;BME280;31429;42.674;23.350;2022-12-05T00:05:40;95692.53;;;5.48;100.00
23164;BME280;31429;42.674;23.350;2022-12-05T00:06:42;95694.22;;;5.54;100.00
23164;BME280;31429;42.674;23.350;2022-12-05T00:07:43;95693.41;;;5.40;100.00
23164;BME280;31429;42.674;23.350;2022-12-05T00:08:44;95691.75;;;5.39;100.00
23164;BME280;31429;42.674;23.350;2022-12-05T00:09:44;95691.75;;;5.39;100.00
23164;BME280;31429;42.674;23.350;2022-12-05T00:10:45;95695.94;;;5.49;100.00
23164;BME280;31429;42.674;23.350;2022-12-05T00:11:46;95695.97;;;5.38;100.00
23164;BME280;31429;42.674;23.350;2022-12-05T00:12:46;95697.69;;;5.33;100.00
23164;BME280;31429;42.674;23.350;2022-12-05T00:13:48;95687.50;;;5.41;100.00
23164;BME280;31429;42.674;23.350;2022-12-05T00:14:49;95698.50;;;5.41;100.00
23164;BME280;31429;42.674;23.350;2022-12-05T00:15:50;95693.41;;;5.37;100.00
23164;BME280;31429;42.674;23.350;2022-12-05T00:16:50;95699.38;;;5.20;100.00
23164;BME280;31429;42.674;23.350;2022-12-05T00:17:51;95696.00;;;5.20;100.00
23164;BME280;31429;42.674;23.350;2022-12-05T00:18:52;95696.84;;;5.30;100.00
23164;BME280;31429;42.674;23.350;2022-12-05T00:19:53;95688.41;;;5.31;100.00
23164;BME280;31429;42.674;23.350;2022-12-05T00:20:55;95685.00;;;5.30;100.00
23164;BME280;31429;42.674;23.350;2022-12-05T00:21:56;95701.03;;;5.38;100.00
23164;BME280;31429;42.674;23.350;2022-12-05T00:22:57;95686.69;;;5.36;100.00
23164;BME280;31429;42.674;23.350;2022-12-05T00:23:59;95701.03;;;5.44;100.00
23164;BME280;31429;42.674;23.350;2022-12-05T00:24:59;95695.16;;;5.30;100.00
23164;BME280;31429;42.674;23.350;2022-12-05T00:26:01;95697.66;;;5.32;100.00
23164;BME280;31429;42.674;23.350;2022-12-05T00:27:02;95700.19;;;5.39;100.00
23164;BME280;31429;42.674;23.350;2022-12-05T00:28:03;95690.09;;;5.21;100.00
23164;BME280;31429;42.674;23.350;2022-12-05T00:29:04;95693.47;;;5.20;100.00
23164;BME280;31429;42.674;23.350;2022-12-05T00:30:06;95702.75;;;5.19;100.00
23164;BME280;31429;42.674;23.350;2022-12-05T00:31:10;95696.03;;;5.08;100.00
23164;BME280;31429;42.674;23.350;2022-12-05T00:32:11;95704.47;;;5.14;100.00
23164;BME280;31429;42.674;23.350;2022-12-05T00:33:12;95702.78;;;5.18;100.00
23164;BME280;31429;42.674;23.350;2022-12-05T00:34:12;95701.88;;;5.28;100.00
23164;BME280;31429;42.674;23.350;2022-12-05T00:35:13;95707.81;;;5.29;100.00
23164;BME280;31429;42.674;23.350;2022-12-05T00:36:18;95702.75;;;5.29;100.00
23164;BME280;31429;42.674;23.350;2022-12-05T00:37:19;95712.03;;;5.34;100.00
23164;BME280;31429;42.674;23.350;2022-12-05T00:38:20;95709.53;;;5.22;100.00
23164;BME280;31429;42.674;23.350;2022-12-05T00:39:20;95710.38;;;5.18;100.00
23164;BME280;31429;42.674;23.350;2022-12-05T00:40:21;95708.69;;;5.11;100.00
23164;BME280;31429;42.674;23.350;2022-12-05T00:41:24;95709.53;;;5.10;100.00
23164;BME280;31429;42.674;23.350;2022-12-05T00:42:25;95709.53;;;5.13;100.00
23164;BME280;31429;42.674;23.350;2022-12-05T00:43:26;95709.53;;;5.13;100.00
23164;BME280;31429;42.674;23.350;2022-12-05T00:44:26;95701.94;;;5.14;100.00
23164;BME280;31429;42.674;23.350;2022-12-05T00:45:27;95705.28;;;5.22;100.00
23164;BME280;31429;42.674;23.350;2022-12-05T00:46:29;95706.13;;;5.32;100.00
23164;BME280;31429;42.674;23.350;2022-12-05T00:47:33;95701.09;;;5.21;100.00
23164;BME280;31429;42.674;23.350;2022-12-05T00:48:35;95701.91;;;5.20;100.00
23164;BME280;31429;42.674;23.350;2022-12-05T00:49:35;95714.63;;;5.16;100.00
23164;BME280;31429;42.674;23.350;2022-12-05T00:50:36;95711.22;;;5.14;100.00
23164;BME280;31429;42.674;23.350;2022-12-05T00:51:40;95707.00;;;5.13;100.00
23164;BME280;31429;42.674;23.350;2022-12-05T00:52:40;95701.94;;;5.16;100.00
23164;BME280;31429;42.674;23.350;2022-12-05T00:53:41;95704.47;;;5.19;100.00
23164;BME280;31429;42.674;23.350;2022-12-05T00:54:42;95707.00;;;5.19;100.00
23164;BME280;31429;42.674;23.350;2022-12-05T00:55:43;95701.06;;;5.20;100.00
23164;BME280;31429;42.674;23.350;2022-12-05T00:56:44;95701.91;;;5.17;100.00
23164;BME280;31429;42.674;23.350;2022-12-05T00:57:45;95693.47;;;5.14;100.00
23164;BME280;31429;42.674;23.350;2022-12-05T00:58:46;95699.34;;;5.28;100.00
23164;BME280;31429;42.674;23.350;2022-12-05T00:59:47;95691.75;;;5.36;100.00
23164;BME280;31429;42.674;23.350;2022-12-05T01:00:48;95689.19;;;5.34;100.00
23164;BME280;31429;42.674;23.350;2022-12-05T01:01:50;95682.47;;;5.26;100.00
23164;BME280;31429;42.674;23.350;2022-12-05T01:02:51;95686.69;;;5.30;100.00
23164;BME280;31429;42.674;23.350;2022-12-05T01:03:55;95680.78;;;5.31;100.00
23164;BME280;31429;42.674;23.350;2022-12-05T01:05:15;95685.00;;;5.33;100.00
23164;BME280;31429;42.674;23.350;2022-12-05T01:06:16;95685.84;;;5.29;100.00
23164;BME280;31429;42.674;23.350;2022-12-05T01:07:18;95682.47;;;5.30;100.00
23164;BME280;31429;42.674;23.350;2022-12-05T01:08:18;95680.78;;;5.29;100.00
23164;BME280;31429;42.674;23.350;2022-12-05T01:09:20;95681.59;;;5.36;100.00
23164;BME280;31429;42.674;23.350;2022-12-05T01:10:20;95685.81;;;5.40;100.00
23164;BME280;31429;42.674;23.350;2022-12-05T01:11:23;95670.63;;;5.29;100.00
23164;BME280;31429;42.674;23.350;2022-12-05T01:12:24;95680.78;;;5.29;100.00
23164;BME280;31429;42.674;23.350;2022-12-05T01:13:25;95681.63;;;5.27;100.00
23164;BME280;31429;42.674;23.350;2022-12-05T01:14:26;95674.06;;;5.19;100.00
23164;BME280;31429;42.674;23.350;2022-12-05T01:15:27;95685.03;;;5.16;100.00
23164;BME280;31429;42.674;23.350;2022-12-05T01:16:30;95682.50;;;5.15;100.00
23164;BME280;31429;42.674;23.350;2022-12-05T01:17:32;95680.81;;;5.18;100.00
23164;BME280;31429;42.674;23.350;2022-12-05T01:18:34;95681.66;;;5.13;100.00
23164;BME280;31429;42.674;23.350;2022-12-05T01:19:35;95678.28;;;5.18;100.00
23164;BME280;31429;42.674;23.350;2022-12-05T01:20:38;95689.25;;;5.23;100.00
23164;BME280;31429;42.674;23.350;2022-12-05T01:21:38;95688.41;;;5.21;100.00
23164;BME280;31429;42.674;23.350;2022-12-05T01:22:40;95683.34;;;5.25;100.00
23164;BME280;31429;42.674;23.350;2022-12-05T01:23:41;95687.59;;;5.16;100.00
23164;BME280;31429;42.674;23.350;2022-12-05T01:24:42;95686.75;;;5.13;100.00
23164;BME280;31429;42.674;23.350;2022-12-05T01:25:44;95685.03;;;5.16;100.00
23164;BME280;31429;42.674;23.350;2022-12-05T01:26:47;95682.47;;;5.19;100.00
23164;BME280;31429;42.674;23.350;2022-12-05T01:27:48;95681.66;;;5.11;100.00
23164;BME280;31429;42.674;23.350;2022-12-05T01:28:49;95680.78;;;5.17;100.00
23164;BME280;31429;42.674;23.350;2022-12-05T01:29:50;95678.28;;;5.21;100.00
23164;BME280;31429;42.674;23.350;2022-12-05T01:30:51;95673.16;;;5.29;100.00
23164;BME280;31429;42.674;23.350;2022-12-05T01:31:52;95676.53;;;5.34;100.00
23164;BME280;31429;42.674;23.350;2022-12-05T01:32:53;95670.63;;;5.26;100.00
23164;BME280;31429;42.674;23.350;2022-12-05T01:33:55;95666.41;;;5.36;100.00
23164;BME280;31429;42.674;23.350;2022-12-05T01:34:56;95664.66;;;5.53;100.00
23164;BME280;31429;42.674;23.350;2022-12-05T01:35:57;95662.91;;;5.59;100.00
23164;BME280;31429;42.674;23.350;2022-12-05T01:36:57;95667.09;;;5.71;100.00
23164;BME280;31429;42.674;23.350;2022-12-05T01:38:00;95663.78;;;5.52;100.00
23164;BME280;31429;42.674;23.350;2022-12-05T01:39:01;95668.91;;;5.43;100.00
23164;BME280;31429;42.674;23.350;2022-12-05T01:40:03;95669.59;;;5.78;100.00
23164;BME280;31429;42.674;23.350;2022-12-05T01:41:05;95667.13;;;5.63;100.00
23164;BME280;31429;42.674;23.350;2022-12-05T01:42:06;95658.59;;;5.81;100.00
23164;BME280;31429;42.674;23.350;2022-12-05T01:43:13;95658.59;;;5.81;100.00
23164;BME280;31429;42.674;23.350;2022-12-05T01:45:52;95662.03;;;5.65;100.00
23164;BME280;31429;42.674;23.350;2022-12-05T01:46:54;95657.84;;;5.59;100.00
23164;BME280;31429;42.674;23.350;2022-12-05T01:47:55;95661.22;;;5.60;100.00
23164;BME280;31429;42.674;23.350;2022-12-05T01:49:00;95647.59;;;5.85;100.00
23164;BME280;31429;42.674;23.350;2022-12-05T01:50:03;95645.88;;;5.95;100.00
23164;BME280;31429;42.674;23.350;2022-12-05T01:51:04;95653.50;;;5.79;100.00
23164;BME280;31429;42.674;23.350;2022-12-05T01:52:14;95651.06;;;5.63;100.00
23164;BME280;31429;42.674;23.350;2022-12-05T01:53:19;95651.97;;;5.56;100.00
23164;BME280;31429;42.674;23.350;2022-12-05T01:54:21;95655.28;;;5.59;100.00
23164;BME280;31429;42.674;23.350;2022-12-05T01:55:23;95658.72;;;5.52;100.00
23164;BME280;31429;42.674;23.350;2022-12-05T01:56:24;95652.81;;;5.52;100.00
23164;BME280;31429;42.674;23.350;2022-12-05T01:57:25;95654.41;;;5.72;100.00
23164;BME280;31429;42.674;23.350;2022-12-05T01:58:30;95653.63;;;5.58;100.00
23164;BME280;31429;42.674;23.350;2022-12-05T01:59:34;95658.66;;;5.69;100.00
23164;BME280;31429;42.674;23.350;2022-12-05T02:00:35;95653.63;;;5.57;100.00
23164;BME280;31429;42.674;23.350;2022-12-05T02:01:38;95656.19;;;5.55;100.00
23164;BME280;31429;42.674;23.350;2022-12-05T02:02:41;95651.97;;;5.51;100.00
23164;BME280;31429;42.674;23.350;2022-12-05T02:03:43;95656.16;;;5.54;100.00
23164;BME280;31429;42.674;23.350;2022-12-05T02:04:50;95660.41;;;5.58;100.00
23164;BME280;31429;42.674;23.350;2022-12-05T02:05:56;95657.84;;;5.59;100.00
23164;BME280;31429;42.674;23.350;2022-12-05T02:06:58;95660.34;;;5.70;100.00
23164;BME280;31429;42.674;23.350;2022-12-05T02:08:01;95655.28;;;5.65;100.00
23164;BME280;31429;42.674;23.350;2022-12-05T02:09:03;95646.88;;;5.62;100.00
23164;BME280;31429;42.674;23.350;2022-12-05T02:10:06;95657.81;;;5.62;100.00
23164;BME280;31429;42.674;23.350;2022-12-05T02:11:07;95657.78;;;5.74;100.00
23164;BME280;31429;42.674;23.350;2022-12-05T02:12:09;95662.81;;;5.88;100.00
23164;BME280;31429;42.674;23.350;2022-12-05T02:13:28;95653.59;;;5.63;100.00
23164;BME280;31429;42.674;23.350;2022-12-05T02:14:36;95661.22;;;5.57;100.00
23164;BME280;31429;42.674;23.350;2022-12-05T02:15:44;95665.41;;;5.71;100.00
23164;BME280;31429;42.674;23.350;2022-12-05T02:16:52;95670.50;;;5.65;100.00
23164;BME280;31429;42.674;23.350;2022-12-05T02:18:09;95662.09;;;5.48;100.00
23164;BME280;31429;42.674;23.350;2022-12-05T02:19:46;95654.47;;;5.62;100.00
23164;BME280;31429;42.674;23.350;2022-12-05T02:21:03;95660.38;;;5.64;100.00
23164;BME280;31429;42.674;23.350;2022-12-05T02:22:21;95662.88;;;5.70;100.00
23164;BME280;31429;42.674;23.350;2022-12-05T02:23:49;95661.22;;;5.61;100.00
23164;BME280;31429;42.674;23.350;2022-12-05T02:25:21;95660.44;;;5.53;100.00
23164;BME280;31429;42.674;23.350;2022-12-05T02:26:45;95656.97;;;5.65;100.00
23164;BME280;31429;42.674;23.350;2022-12-05T02:28:07;95662.88;;;5.68;100.00
23164;BME280;31429;42.674;23.350;2022-12-05T02:29:29;95651.91;;;5.63;100.00
23164;BME280;31429;42.674;23.350;2022-12-05T02:30:37;95651.88;;;5.72;100.00
23164;BME280;31429;42.674;23.350;2022-12-05T02:31:44;95654.41;;;5.71;100.00
23164;BME280;31429;42.674;23.350;2022-12-05T02:32:53;95642.56;;;5.71;100.00
23164;BME280;31429;42.674;23.350;2022-12-05T02:34:03;95656.09;;;5.70;100.00
23164;BME280;31429;42.674;23.350;2022-12-05T02:35:12;95654.44;;;5.63;100.00
23164;BME280;31429;42.674;23.350;2022-12-05T02:36:19;95656.97;;;5.66;100.00
23164;BME280;31429;42.674;23.350;2022-12-05T02:37:27;95653.59;;;5.67;100.00
23164;BME280;31429;42.674;23.350;2022-12-05T02:38:34;95659.50;;;5.72;100.00
23164;BME280;31429;42.674;23.350;2022-12-05T02:39:42;95646.81;;;5.72;100.00
23164;BME280;31429;42.674;23.350;2022-12-05T02:40:50;95651.00;;;5.70;100.00
23164;BME280;31429;42.674;23.350;2022-12-05T02:41:59;95640.94;;;5.58;100.00
23164;BME280;31429;42.674;23.350;2022-12-05T02:43:07;95651.88;;;5.71;100.00
23164;BME280;31429;42.674;23.350;2022-12-05T02:44:13;95650.13;;;5.80;100.00
23164;BME280;31429;42.674;23.350;2022-12-05T02:45:17;95644.22;;;5.77;100.00
23164;BME280;31429;42.674;23.350;2022-12-05T02:46:22;95646.78;;;5.78;100.00
23164;BME280;31429;42.674;23.350;2022-12-05T02:47:26;95641.69;;;5.82;100.00
23164;BME280;31429;42.674;23.350;2022-12-05T02:48:30;95642.56;;;5.71;100.00
23164;BME280;31429;42.674;23.350;2022-12-05T02:49:35;95646.78;;;5.71;100.00
23164;BME280;31429;42.674;23.350;2022-12-05T02:50:37;95643.41;;;5.70;100.00
23164;BME280;31429;42.674;23.350;2022-12-05T02:51:42;95636.63;;;5.77;100.00
23164;BME280;31429;42.674;23.350;2022-12-05T02:52:44;95639.16;;;5.78;100.00
23164;BME280;31429;42.674;23.350;2022-12-05T02:53:48;95639.13;;;5.83;100.00
23164;BME280;31429;42.674;23.350;2022-12-05T02:54:52;95639.97;;;5.84;100.00
23164;BME280;31429;42.674;23.350;2022-12-05T02:55:54;95640.84;;;5.78;100.00
23164;BME280;31429;42.674;23.350;2022-12-05T02:56:56;95634.94;;;5.74;100.00
23164;BME280;31429;42.674;23.350;2022-12-05T02:58:02;95637.50;;;5.71;100.00
23164;BME280;31429;42.674;23.350;2022-12-05T02:59:04;95639.16;;;5.78;100.00
23164;BME280;31429;42.674;23.350;2022-12-05T03:00:06;95640.81;;;5.89;100.00
23164;BME280;31429;42.674;23.350;2022-12-05T03:01:07;95636.66;;;5.71;100.00
23164;BME280;31429;42.674;23.350;2022-12-05T03:02:21;95627.34;;;5.74;100.00
23164;BME280;31429;42.674;23.350;2022-12-05T03:03:22;95635.78;;;5.73;100.00
23164;BME280;31429;42.674;23.350;2022-12-05T03:04:24;95633.22;;;5.86;100.00
23164;BME280;31429;42.674;23.350;2022-12-05T03:05:31;95633.25;;;5.78;100.00
23164;BME280;31429;42.674;23.350;2022-12-05T03:06:41;95634.06;;;5.82;100.00
23164;BME280;31429;42.674;23.350;2022-12-05T03:07:44;95632.38;;;5.85;100.00
23164;BME280;31429;42.674;23.350;2022-12-05T03:08:49;95636.59;;;5.83;100.00
23164;BME280;31429;42.674;23.350;2022-12-05T03:09:55;95634.91;;;5.85;100.00
23164;BME280;31429;42.674;23.350;2022-12-05T03:11:00;95623.06;;;5.79;100.00
23164;BME280;31429;42.674;23.350;2022-12-05T03:12:06;95629.78;;;5.94;100.00
23164;BME280;31429;42.674;23.350;2022-12-05T03:13:12;95637.41;;;5.96;100.00
23164;BME280;31429;42.674;23.350;2022-12-05T03:14:20;95646.69;;;5.97;100.00
23164;BME280;31429;42.674;23.350;2022-12-05T03:15:24;95633.22;;;5.89;100.00
23164;BME280;31429;42.674;23.350;2022-12-05T03:16:30;95642.50;;;5.88;100.00
23164;BME280;31429;42.674;23.350;2022-12-05T03:17:38;95635.75;;;5.81;100.00
23164;BME280;31429;42.674;23.350;2022-12-05T03:18:46;95640.81;;;5.82;100.00
23164;BME280;31429;42.674;23.350;2022-12-05T03:19:51;95642.53;;;5.80;100.00
23164;BME280;31429;42.674;23.350;2022-12-05T03:20:59;95640.03;;;5.73;100.00
23164;BME280;31429;42.674;23.350;2022-12-05T03:22:06;95635.78;;;5.78;100.00
23164;BME280;31429;42.674;23.350;2022-12-05T03:23:12;95639.16;;;5.78;100.00
23164;BME280;31429;42.674;23.350;2022-12-05T03:24:15;95644.25;;;5.75;100.00
23164;BME280;31429;42.674;23.350;2022-12-05T03:25:16;95638.28;;;5.79;100.00
23164;BME280;31429;42.674;23.350;2022-12-05T03:26:26;95638.28;;;5.79;100.00
23164;BME280;31429;42.674;23.350;2022-12-05T03:27:31;95645.06;;;5.90;100.00
23164;BME280;31429;42.674;23.350;2022-12-05T03:28:48;95643.31;;;5.95;100.00
23164;BME280;31429;42.674;23.350;2022-12-05T03:29:54;95650.97;;;5.82;100.00
23164;BME280;31429;42.674;23.350;2022-12-05T03:31:00;95649.28;;;5.89;100.00
23164;BME280;31429;42.674;23.350;2022-12-05T03:32:07;95644.22;;;5.89;100.00
23164;BME280;31429;42.674;23.350;2022-12-05T03:33:13;95651.81;;;5.89;100.00
23164;BME280;31429;42.674;23.350;2022-12-05T03:34:19;95644.22;;;5.89;100.00
23164;BME280;31429;42.674;23.350;2022-12-05T03:35:23;95652.56;;;6.03;100.00
23164;BME280;31429;42.674;23.350;2022-12-05T03:36:29;95649.22;;;5.97;100.00
23164;BME280;31429;42.674;23.350;2022-12-05T03:37:39;95646.69;;;6.01;100.00
23164;BME280;31429;42.674;23.350;2022-12-05T03:38:44;95640.81;;;5.92;100.00
23164;BME280;31429;42.674;23.350;2022-12-05T03:39:56;95644.78;;;6.32;100.00
23164;BME280;31429;42.674;23.350;2022-12-05T03:41:04;95650.84;;;6.11;100.00
23164;BME280;31429;42.674;23.350;2022-12-05T03:42:11;95644.13;;;6.00;100.00
